Louisville, Kansas
Current Conditions -  °F | °C
As of 10:52 PM on Saturday 25 Oct 2014 (Local Time) from KMHK Reporting Station
Clear Clear  
Wind Chill: 67°   Ceiling: Unl
Heat Index: 67°   Visibility: 10mi
Dew Point: 59°   Wind: 3mph
Humidity: 76%   Direction: 30°NNE
Pressure: 29.95"   Gusts: NA
Location:  39.25°N, 96.32°W
Report Text: KMHK 260352Z AUTO 03003KT 10SM CLR 19/15 A2995 RMK AO2 SLP137 T01940150 TSNO
Loading
Personal Weather Stations






























Interactive Weather Map
Tropical Storm Tracking
New forecast layout! Learn more

10-Day Weather Forecast

Advertisements
Track Severe Weather on mobile